sensor_id;sensor_type;location;lat;lon;timestamp;P1;durP1;ratioP1;P2;durP2;ratioP2
48813;SDS011;34634;44.108;3.074;2022-11-21T00:01:40;7.43;;;2.35;;
48813;SDS011;34634;44.108;3.074;2022-11-21T00:04:07;7.90;;;2.35;;
48813;SDS011;34634;44.108;3.074;2022-11-21T00:06:33;9.65;;;2.47;;
48813;SDS011;34634;44.108;3.074;2022-11-21T00:08:59;14.18;;;3.30;;
48813;SDS011;34634;44.108;3.074;2022-11-21T00:11:26;13.07;;;3.08;;
48813;SDS011;34634;44.108;3.074;2022-11-21T00:13:52;8.50;;;2.40;;
48813;SDS011;34634;44.108;3.074;2022-11-21T00:16:18;7.15;;;2.55;;
48813;SDS011;34634;44.108;3.074;2022-11-21T00:18:45;10.23;;;2.28;;
48813;SDS011;34634;44.108;3.074;2022-11-21T00:21:12;9.43;;;2.38;;
48813;SDS011;34634;44.108;3.074;2022-11-21T00:23:39;11.57;;;2.72;;
48813;SDS011;34634;44.108;3.074;2022-11-21T00:26:06;15.10;;;3.15;;
48813;SDS011;34634;44.108;3.074;2022-11-21T00:28:33;10.73;;;2.63;;
48813;SDS011;34634;44.108;3.074;2022-11-21T00:30:59;12.45;;;2.70;;
48813;SDS011;34634;44.108;3.074;2022-11-21T00:33:25;8.25;;;2.10;;
48813;SDS011;34634;44.108;3.074;2022-11-21T00:35:52;13.40;;;3.10;;
48813;SDS011;34634;44.108;3.074;2022-11-21T00:38:18;11.10;;;2.80;;
48813;SDS011;34634;44.108;3.074;2022-11-21T00:40:44;11.00;;;2.55;;
48813;SDS011;34634;44.108;3.074;2022-11-21T00:43:11;9.90;;;2.85;;
48813;SDS011;34634;44.108;3.074;2022-11-21T00:45:38;11.32;;;2.65;;
48813;SDS011;34634;44.108;3.074;2022-11-21T00:48:04;12.68;;;2.53;;
48813;SDS011;34634;44.108;3.074;2022-11-21T00:50:31;9.50;;;3.30;;
48813;SDS011;34634;44.108;3.074;2022-11-21T00:52:57;9.10;;;2.92;;
48813;SDS011;34634;44.108;3.074;2022-11-21T00:55:24;9.93;;;2.72;;
48813;SDS011;34634;44.108;3.074;2022-11-21T00:57:50;11.43;;;2.88;;
48813;SDS011;34634;44.108;3.074;2022-11-21T01:00:16;11.93;;;3.05;;
48813;SDS011;34634;44.108;3.074;2022-11-21T01:02:43;10.18;;;2.92;;
48813;SDS011;34634;44.108;3.074;2022-11-21T01:05:09;14.30;;;3.55;;
48813;SDS011;34634;44.108;3.074;2022-11-21T01:07:35;10.10;;;2.55;;
48813;SDS011;34634;44.108;3.074;2022-11-21T01:10:02;12.43;;;3.38;;
48813;SDS011;34634;44.108;3.074;2022-11-21T01:12:28;14.07;;;3.25;;
48813;SDS011;34634;44.108;3.074;2022-11-21T01:14:56;16.90;;;3.10;;
48813;SDS011;34634;44.108;3.074;2022-11-21T01:17:22;8.88;;;3.38;;
48813;SDS011;34634;44.108;3.074;2022-11-21T01:19:49;15.60;;;3.85;;
48813;SDS011;34634;44.108;3.074;2022-11-21T01:22:15;15.50;;;4.20;;
48813;SDS011;34634;44.108;3.074;2022-11-21T01:24:41;16.80;;;3.88;;
48813;SDS011;34634;44.108;3.074;2022-11-21T01:27:07;20.30;;;4.88;;
48813;SDS011;34634;44.108;3.074;2022-11-21T01:29:34;12.63;;;4.10;;
48813;SDS011;34634;44.108;3.074;2022-11-21T01:32:00;13.20;;;4.68;;
48813;SDS011;34634;44.108;3.074;2022-11-21T01:34:26;13.75;;;4.13;;
48813;SDS011;34634;44.108;3.074;2022-11-21T01:36:53;15.32;;;4.32;;
48813;SDS011;34634;44.108;3.074;2022-11-21T01:39:19;14.85;;;3.83;;
48813;SDS011;34634;44.108;3.074;2022-11-21T01:41:47;10.70;;;3.72;;
48813;SDS011;34634;44.108;3.074;2022-11-21T01:46:49;12.35;;;3.47;;
48813;SDS011;34634;44.108;3.074;2022-11-21T01:49:19;12.70;;;3.20;;
48813;SDS011;34634;44.108;3.074;2022-11-21T01:54:13;15.15;;;3.97;;
48813;SDS011;34634;44.108;3.074;2022-11-21T01:59:09;16.00;;;3.65;;
48813;SDS011;34634;44.108;3.074;2022-11-21T02:01:36;15.90;;;4.25;;
48813;SDS011;34634;44.108;3.074;2022-11-21T02:04:03;14.10;;;3.95;;
48813;SDS011;34634;44.108;3.074;2022-11-21T02:06:30;20.17;;;5.22;;
48813;SDS011;34634;44.108;3.074;2022-11-21T02:08:57;15.07;;;5.05;;
48813;SDS011;34634;44.108;3.074;2022-11-21T02:11:35;14.23;;;4.43;;
48813;SDS011;34634;44.108;3.074;2022-11-21T02:14:02;20.45;;;3.75;;
48813;SDS011;34634;44.108;3.074;2022-11-21T02:16:28;19.90;;;5.15;;
48813;SDS011;34634;44.108;3.074;2022-11-21T02:18:55;17.67;;;5.07;;
48813;SDS011;34634;44.108;3.074;2022-11-21T02:23:51;14.00;;;4.53;;
48813;SDS011;34634;44.108;3.074;2022-11-21T02:26:19;18.92;;;4.97;;
48813;SDS011;34634;44.108;3.074;2022-11-21T02:28:45;15.05;;;4.45;;
48813;SDS011;34634;44.108;3.074;2022-11-21T02:31:11;16.98;;;5.00;;
48813;SDS011;34634;44.108;3.074;2022-11-21T02:33:38;17.35;;;5.10;;
48813;SDS011;34634;44.108;3.074;2022-11-21T02:36:26;10.38;;;4.32;;
48813;SDS011;34634;44.108;3.074;2022-11-21T02:38:50;15.32;;;3.92;;
48813;SDS011;34634;44.108;3.074;2022-11-21T02:41:18;14.35;;;4.68;;
48813;SDS011;34634;44.108;3.074;2022-11-21T02:43:54;20.08;;;5.30;;
48813;SDS011;34634;44.108;3.074;2022-11-21T02:46:22;17.45;;;5.15;;
48813;SDS011;34634;44.108;3.074;2022-11-21T02:48:48;14.57;;;5.20;;
48813;SDS011;34634;44.108;3.074;2022-11-21T02:51:15;13.63;;;4.82;;
48813;SDS011;34634;44.108;3.074;2022-11-21T02:53:41;14.73;;;5.10;;
48813;SDS011;34634;44.108;3.074;2022-11-21T02:56:07;12.25;;;4.05;;
48813;SDS011;34634;44.108;3.074;2022-11-21T02:58:34;15.30;;;4.75;;
48813;SDS011;34634;44.108;3.074;2022-11-21T03:01:00;14.73;;;4.93;;
48813;SDS011;34634;44.108;3.074;2022-11-21T03:03:26;16.23;;;4.30;;
48813;SDS011;34634;44.108;3.074;2022-11-21T03:05:53;18.05;;;4.20;;
48813;SDS011;34634;44.108;3.074;2022-11-21T03:08:19;14.73;;;4.03;;
48813;SDS011;34634;44.108;3.074;2022-11-21T03:10:46;22.23;;;4.93;;
48813;SDS011;34634;44.108;3.074;2022-11-21T03:13:12;11.45;;;3.28;;
48813;SDS011;34634;44.108;3.074;2022-11-21T03:15:38;11.60;;;3.17;;
48813;SDS011;34634;44.108;3.074;2022-11-21T03:18:05;13.88;;;3.80;;
48813;SDS011;34634;44.108;3.074;2022-11-21T03:20:32;12.70;;;2.75;;
48813;SDS011;34634;44.108;3.074;2022-11-21T03:22:58;8.23;;;2.15;;
48813;SDS011;34634;44.108;3.074;2022-11-21T03:25:25;16.67;;;3.85;;
48813;SDS011;34634;44.108;3.074;2022-11-21T03:27:51;11.98;;;4.00;;
48813;SDS011;34634;44.108;3.074;2022-11-21T03:30:19;16.45;;;4.90;;
48813;SDS011;34634;44.108;3.074;2022-11-21T03:32:45;26.42;;;4.85;;
48813;SDS011;34634;44.108;3.074;2022-11-21T03:35:12;20.58;;;4.75;;
48813;SDS011;34634;44.108;3.074;2022-11-21T03:37:39;14.88;;;4.45;;
48813;SDS011;34634;44.108;3.074;2022-11-21T03:40:05;15.43;;;4.65;;
48813;SDS011;34634;44.108;3.074;2022-11-21T03:42:32;8.75;;;4.15;;
48813;SDS011;34634;44.108;3.074;2022-11-21T03:44:58;11.95;;;4.22;;
48813;SDS011;34634;44.108;3.074;2022-11-21T03:47:24;18.52;;;4.22;;
48813;SDS011;34634;44.108;3.074;2022-11-21T03:49:51;17.42;;;4.68;;
48813;SDS011;34634;44.108;3.074;2022-11-21T03:52:18;17.98;;;4.82;;
48813;SDS011;34634;44.108;3.074;2022-11-21T03:54:44;12.32;;;3.58;;
48813;SDS011;34634;44.108;3.074;2022-11-21T03:57:10;18.17;;;4.35;;
48813;SDS011;34634;44.108;3.074;2022-11-21T03:59:37;12.45;;;3.85;;
48813;SDS011;34634;44.108;3.074;2022-11-21T04:02:03;11.55;;;4.38;;
48813;SDS011;34634;44.108;3.074;2022-11-21T04:04:29;16.75;;;4.30;;
48813;SDS011;34634;44.108;3.074;2022-11-21T04:06:56;13.88;;;3.88;;
48813;SDS011;34634;44.108;3.074;2022-11-21T04:09:22;16.42;;;3.70;;
48813;SDS011;34634;44.108;3.074;2022-11-21T04:11:48;13.25;;;3.55;;
48813;SDS011;34634;44.108;3.074;2022-11-21T04:14:14;13.70;;;4.13;;
48813;SDS011;34634;44.108;3.074;2022-11-21T04:16:41;16.42;;;3.60;;
48813;SDS011;34634;44.108;3.074;2022-11-21T04:19:07;15.27;;;3.13;;
48813;SDS011;34634;44.108;3.074;2022-11-21T04:21:33;14.90;;;3.15;;
48813;SDS011;34634;44.108;3.074;2022-11-21T04:24:00;13.23;;;3.28;;
48813;SDS011;34634;44.108;3.074;2022-11-21T04:26:26;15.85;;;3.38;;
48813;SDS011;34634;44.108;3.074;2022-11-21T04:28:52;13.07;;;2.70;;
48813;SDS011;34634;44.108;3.074;2022-11-21T04:31:19;11.15;;;3.20;;
48813;SDS011;34634;44.108;3.074;2022-11-21T04:33:45;8.65;;;2.97;;
48813;SDS011;34634;44.108;3.074;2022-11-21T04:36:11;16.23;;;3.88;;
48813;SDS011;34634;44.108;3.074;2022-11-21T04:38:38;16.35;;;3.92;;
48813;SDS011;34634;44.108;3.074;2022-11-21T04:41:04;13.25;;;3.17;;
48813;SDS011;34634;44.108;3.074;2022-11-21T04:43:30;14.02;;;3.60;;
48813;SDS011;34634;44.108;3.074;2022-11-21T04:45:57;15.98;;;3.58;;
48813;SDS011;34634;44.108;3.074;2022-11-21T04:48:23;11.80;;;2.97;;
48813;SDS011;34634;44.108;3.074;2022-11-21T04:50:49;20.63;;;3.60;;
48813;SDS011;34634;44.108;3.074;2022-11-21T04:53:16;11.35;;;2.95;;
48813;SDS011;34634;44.108;3.074;2022-11-21T04:55:42;11.95;;;3.45;;
48813;SDS011;34634;44.108;3.074;2022-11-21T04:58:08;11.63;;;3.70;;
48813;SDS011;34634;44.108;3.074;2022-11-21T05:00:34;12.02;;;2.72;;
48813;SDS011;34634;44.108;3.074;2022-11-21T05:03:04;12.05;;;3.70;;
48813;SDS011;34634;44.108;3.074;2022-11-21T05:05:30;12.85;;;3.53;;
48813;SDS011;34634;44.108;3.074;2022-11-21T05:07:57;18.30;;;4.60;;
48813;SDS011;34634;44.108;3.074;2022-11-21T05:10:23;18.48;;;3.90;;
48813;SDS011;34634;44.108;3.074;2022-11-21T05:12:59;10.13;;;3.65;;
48813;SDS011;34634;44.108;3.074;2022-11-21T05:15:44;20.63;;;4.22;;
48813;SDS011;34634;44.108;3.074;2022-11-21T05:18:10;17.60;;;4.70;;
48813;SDS011;34634;44.108;3.074;2022-11-21T05:20:37;17.38;;;6.40;;
48813;SDS011;34634;44.108;3.074;2022-11-21T05:23:03;17.25;;;6.25;;
48813;SDS011;34634;44.108;3.074;2022-11-21T05:25:29;21.05;;;6.35;;
48813;SDS011;34634;44.108;3.074;2022-11-21T05:27:56;13.35;;;4.32;;
48813;SDS011;34634;44.108;3.074;2022-11-21T05:30:22;17.58;;;4.75;;
48813;SDS011;34634;44.108;3.074;2022-11-21T05:32:49;10.43;;;3.50;;
48813;SDS011;34634;44.108;3.074;2022-11-21T05:35:15;13.30;;;3.78;;
48813;SDS011;34634;44.108;3.074;2022-11-21T05:37:41;20.02;;;4.00;;
48813;SDS011;34634;44.108;3.074;2022-11-21T05:40:08;16.60;;;4.30;;
48813;SDS011;34634;44.108;3.074;2022-11-21T05:42:37;12.45;;;4.75;;
48813;SDS011;34634;44.108;3.074;2022-11-21T05:45:22;18.83;;;3.65;;
48813;SDS011;34634;44.108;3.074;2022-11-21T05:47:49;14.80;;;4.70;;
48813;SDS011;34634;44.108;3.074;2022-11-21T05:50:15;14.50;;;3.53;;
48813;SDS011;34634;44.108;3.074;2022-11-21T05:52:41;10.27;;;3.50;;
48813;SDS011;34634;44.108;3.074;2022-11-21T05:55:08;13.90;;;3.80;;
48813;SDS011;34634;44.108;3.074;2022-11-21T05:57:34;15.68;;;3.92;;
48813;SDS011;34634;44.108;3.074;2022-11-21T06:00:00;13.05;;;4.05;;
48813;SDS011;34634;44.108;3.074;2022-11-21T06:02:27;11.05;;;3.88;;
48813;SDS011;34634;44.108;3.074;2022-11-21T06:05:12;15.05;;;4.40;;
48813;SDS011;34634;44.108;3.074;2022-11-21T06:07:38;13.25;;;4.20;;
48813;SDS011;34634;44.108;3.074;2022-11-21T06:10:04;25.88;;;4.68;;
48813;SDS011;34634;44.108;3.074;2022-11-21T06:12:31;22.40;;;4.90;;
48813;SDS011;34634;44.108;3.074;2022-11-21T06:14:57;10.88;;;3.95;;
48813;SDS011;34634;44.108;3.074;2022-11-21T06:17:23;15.35;;;4.25;;
48813;SDS011;34634;44.108;3.074;2022-11-21T06:19:50;15.07;;;4.22;;
48813;SDS011;34634;44.108;3.074;2022-11-21T06:22:17;10.93;;;3.75;;
48813;SDS011;34634;44.108;3.074;2022-11-21T06:24:43;13.45;;;4.28;;
48813;SDS011;34634;44.108;3.074;2022-11-21T06:27:09;14.82;;;4.13;;
48813;SDS011;34634;44.108;3.074;2022-11-21T06:29:35;20.60;;;4.55;;
48813;SDS011;34634;44.108;3.074;2022-11-21T06:32:02;16.70;;;4.38;;
48813;SDS011;34634;44.108;3.074;2022-11-21T06:34:28;13.93;;;3.88;;
48813;SDS011;34634;44.108;3.074;2022-11-21T06:36:55;17.02;;;5.55;;
48813;SDS011;34634;44.108;3.074;2022-11-21T06:39:21;19.52;;;4.32;;
48813;SDS011;34634;44.108;3.074;2022-11-21T06:41:47;9.43;;;4.22;;
48813;SDS011;34634;44.108;3.074;2022-11-21T06:44:18;12.32;;;4.35;;
48813;SDS011;34634;44.108;3.074;2022-11-21T06:46:44;15.60;;;4.43;;
48813;SDS011;34634;44.108;3.074;2022-11-21T06:49:11;15.25;;;4.47;;
48813;SDS011;34634;44.108;3.074;2022-11-21T06:51:37;17.42;;;5.28;;
48813;SDS011;34634;44.108;3.074;2022-11-21T06:54:03;16.08;;;4.60;;
48813;SDS011;34634;44.108;3.074;2022-11-21T06:56:30;12.50;;;4.03;;
48813;SDS011;34634;44.108;3.074;2022-11-21T06:58:57;13.15;;;4.38;;
48813;SDS011;34634;44.108;3.074;2022-11-21T07:01:24;11.55;;;4.40;;
48813;SDS011;34634;44.108;3.074;2022-11-21T07:03:51;15.18;;;4.40;;
48813;SDS011;34634;44.108;3.074;2022-11-21T07:06:17;14.25;;;3.97;;
48813;SDS011;34634;44.108;3.074;2022-11-21T07:08:43;17.20;;;5.80;;
48813;SDS011;34634;44.108;3.074;2022-11-21T07:11:11;16.95;;;5.45;;
48813;SDS011;34634;44.108;3.074;2022-11-21T07:13:37;22.33;;;7.07;;
48813;SDS011;34634;44.108;3.074;2022-11-21T07:16:08;36.03;;;13.65;;
48813;SDS011;34634;44.108;3.074;2022-11-21T07:21:02;49.17;;;18.05;;
48813;SDS011;34634;44.108;3.074;2022-11-21T07:23:28;37.63;;;14.48;;
48813;SDS011;34634;44.108;3.074;2022-11-21T07:25:59;30.35;;;11.63;;
48813;SDS011;34634;44.108;3.074;2022-11-21T07:28:28;106.63;;;36.35;;
48813;SDS011;34634;44.108;3.074;2022-11-21T07:30:55;55.90;;;21.30;;
48813;SDS011;34634;44.108;3.074;2022-11-21T07:33:21;28.02;;;10.27;;
48813;SDS011;34634;44.108;3.074;2022-11-21T07:35:48;26.70;;;8.57;;
48813;SDS011;34634;44.108;3.074;2022-11-21T07:38:14;25.80;;;7.90;;
48813;SDS011;34634;44.108;3.074;2022-11-21T07:40:41;19.88;;;4.85;;
48813;SDS011;34634;44.108;3.074;2022-11-21T07:43:08;17.02;;;4.43;;
48813;SDS011;34634;44.108;3.074;2022-11-21T07:45:35;15.15;;;3.90;;
48813;SDS011;34634;44.108;3.074;2022-11-21T07:48:03;12.13;;;3.90;;
48813;SDS011;34634;44.108;3.074;2022-11-21T07:50:29;15.93;;;4.18;;
48813;SDS011;34634;44.108;3.074;2022-11-21T07:52:59;8.20;;;3.20;;
48813;SDS011;34634;44.108;3.074;2022-11-21T07:55:26;15.13;;;3.53;;
48813;SDS011;34634;44.108;3.074;2022-11-21T08:00:24;21.20;;;3.55;;
48813;SDS011;34634;44.108;3.074;2022-11-21T08:02:50;13.80;;;3.97;;
48813;SDS011;34634;44.108;3.074;2022-11-21T08:05:16;19.20;;;4.00;;
48813;SDS011;34634;44.108;3.074;2022-11-21T08:07:43;14.38;;;4.15;;
48813;SDS011;34634;44.108;3.074;2022-11-21T08:10:09;12.63;;;3.78;;
48813;SDS011;34634;44.108;3.074;2022-11-21T08:12:35;17.00;;;3.95;;
48813;SDS011;34634;44.108;3.074;2022-11-21T08:15:02;16.65;;;4.32;;
48813;SDS011;34634;44.108;3.074;2022-11-21T08:17:29;16.58;;;4.18;;
48813;SDS011;34634;44.108;3.074;2022-11-21T08:19:55;23.30;;;4.65;;
48813;SDS011;34634;44.108;3.074;2022-11-21T08:22:23;11.68;;;3.88;;
48813;SDS011;34634;44.108;3.074;2022-11-21T08:24:49;16.45;;;4.57;;
48813;SDS011;34634;44.108;3.074;2022-11-21T08:27:15;14.77;;;4.53;;
48813;SDS011;34634;44.108;3.074;2022-11-21T08:29:45;14.15;;;4.13;;
48813;SDS011;34634;44.108;3.074;2022-11-21T08:32:11;16.60;;;4.30;;
48813;SDS011;34634;44.108;3.074;2022-11-21T08:34:37;20.77;;;3.70;;
48813;SDS011;34634;44.108;3.074;2022-11-21T08:37:04;17.15;;;3.58;;
48813;SDS011;34634;44.108;3.074;2022-11-21T08:39:30;15.93;;;4.85;;
48813;SDS011;34634;44.108;3.074;2022-11-21T08:41:56;15.32;;;3.88;;
48813;SDS011;34634;44.108;3.074;2022-11-21T08:44:29;15.45;;;3.28;;
48813;SDS011;34634;44.108;3.074;2022-11-21T08:46:55;20.30;;;4.28;;
48813;SDS011;34634;44.108;3.074;2022-11-21T08:49:22;11.98;;;3.42;;
48813;SDS011;34634;44.108;3.074;2022-11-21T08:51:48;21.85;;;4.30;;
48813;SDS011;34634;44.108;3.074;2022-11-21T08:54:15;13.90;;;3.70;;
48813;SDS011;34634;44.108;3.074;2022-11-21T08:56:41;12.05;;;4.70;;
48813;SDS011;34634;44.108;3.074;2022-11-21T08:59:08;18.00;;;4.85;;
48813;SDS011;34634;44.108;3.074;2022-11-21T09:01:34;18.27;;;5.05;;
48813;SDS011;34634;44.108;3.074;2022-11-21T09:04:00;18.15;;;4.32;;
48813;SDS011;34634;44.108;3.074;2022-11-21T09:06:26;14.63;;;4.68;;
48813;SDS011;34634;44.108;3.074;2022-11-21T09:08:53;16.30;;;5.00;;
48813;SDS011;34634;44.108;3.074;2022-11-21T09:11:19;18.90;;;5.93;;
48813;SDS011;34634;44.108;3.074;2022-11-21T09:13:45;25.67;;;9.05;;
48813;SDS011;34634;44.108;3.074;2022-11-21T09:16:35;21.15;;;7.53;;
48813;SDS011;34634;44.108;3.074;2022-11-21T09:19:20;23.05;;;7.35;;
48813;SDS011;34634;44.108;3.074;2022-11-21T09:21:50;21.83;;;7.63;;
48813;SDS011;34634;44.108;3.074;2022-11-21T09:24:17;23.58;;;7.22;;
48813;SDS011;34634;44.108;3.074;2022-11-21T09:26:44;19.48;;;6.70;;
48813;SDS011;34634;44.108;3.074;2022-11-21T09:29:10;20.15;;;6.82;;
48813;SDS011;34634;44.108;3.074;2022-11-21T09:31:39;20.25;;;7.10;;
48813;SDS011;34634;44.108;3.074;2022-11-21T09:34:06;19.05;;;6.20;;
48813;SDS011;34634;44.108;3.074;2022-11-21T09:36:32;16.73;;;6.53;;
48813;SDS011;34634;44.108;3.074;2022-11-21T09:38:59;30.10;;;7.57;;
48813;SDS011;34634;44.108;3.074;2022-11-21T09:41:27;22.95;;;5.45;;
48813;SDS011;34634;44.108;3.074;2022-11-21T09:44:25;24.00;;;6.03;;
48813;SDS011;34634;44.108;3.074;2022-11-21T09:46:54;37.05;;;11.85;;
48813;SDS011;34634;44.108;3.074;2022-11-21T09:49:24;22.17;;;8.90;;
48813;SDS011;34634;44.108;3.074;2022-11-21T09:51:51;36.00;;;12.15;;
48813;SDS011;34634;44.108;3.074;2022-11-21T09:54:26;45.03;;;22.25;;
48813;SDS011;34634;44.108;3.074;2022-11-21T09:56:55;50.38;;;19.92;;
48813;SDS011;34634;44.108;3.074;2022-11-21T10:01:57;24.50;;;10.27;;
48813;SDS011;34634;44.108;3.074;2022-11-21T10:04:24;22.92;;;9.52;;
48813;SDS011;34634;44.108;3.074;2022-11-21T10:11:56;21.08;;;6.78;;
48813;SDS011;34634;44.108;3.074;2022-11-21T10:14:50;22.73;;;7.90;;
48813;SDS011;34634;44.108;3.074;2022-11-21T10:20:21;11.95;;;4.72;;
48813;SDS011;34634;44.108;3.074;2022-11-21T10:25:24;30.70;;;14.30;;
48813;SDS011;34634;44.108;3.074;2022-11-21T10:27:53;33.30;;;15.55;;
48813;SDS011;34634;44.108;3.074;2022-11-21T10:30:21;12.32;;;3.53;;
48813;SDS011;34634;44.108;3.074;2022-11-21T10:32:52;11.23;;;3.15;;
48813;SDS011;34634;44.108;3.074;2022-11-21T10:35:21;13.35;;;4.35;;
48813;SDS011;34634;44.108;3.074;2022-11-21T10:37:51;48.90;;;21.27;;
48813;SDS011;34634;44.108;3.074;2022-11-21T10:42:52;45.42;;;23.48;;
48813;SDS011;34634;44.108;3.074;2022-11-21T10:45:20;34.33;;;15.27;;
48813;SDS011;34634;44.108;3.074;2022-11-21T10:47:48;11.18;;;4.57;;
48813;SDS011;34634;44.108;3.074;2022-11-21T10:55:19;15.75;;;4.53;;
48813;SDS011;34634;44.108;3.074;2022-11-21T10:57:47;25.13;;;7.97;;
48813;SDS011;34634;44.108;3.074;2022-11-21T11:00:15;12.63;;;5.15;;
48813;SDS011;34634;44.108;3.074;2022-11-21T11:02:56;12.65;;;3.78;;
48813;SDS011;34634;44.108;3.074;2022-11-21T11:05:25;11.10;;;3.58;;
48813;SDS011;34634;44.108;3.074;2022-11-21T11:08:11;17.27;;;7.68;;
48813;SDS011;34634;44.108;3.074;2022-11-21T11:13:14;17.77;;;6.68;;
48813;SDS011;34634;44.108;3.074;2022-11-21T11:18:36;8.57;;;3.85;;
48813;SDS011;34634;44.108;3.074;2022-11-21T11:21:11;9.30;;;3.67;;
48813;SDS011;34634;44.108;3.074;2022-11-21T11:23:39;7.65;;;2.90;;
48813;SDS011;34634;44.108;3.074;2022-11-21T11:26:16;16.02;;;5.53;;
48813;SDS011;34634;44.108;3.074;2022-11-21T11:28:43;18.00;;;7.93;;
48813;SDS011;34634;44.108;3.074;2022-11-21T11:31:09;11.60;;;4.85;;
48813;SDS011;34634;44.108;3.074;2022-11-21T11:33:39;15.35;;;6.63;;
48813;SDS011;34634;44.108;3.074;2022-11-21T11:38:42;59.60;;;26.80;;
48813;SDS011;34634;44.108;3.074;2022-11-21T11:41:37;20.77;;;8.85;;
48813;SDS011;34634;44.108;3.074;2022-11-21T11:44:17;27.50;;;8.35;;
48813;SDS011;34634;44.108;3.074;2022-11-21T11:47:12;19.65;;;7.10;;
48813;SDS011;34634;44.108;3.074;2022-11-21T11:49:57;16.25;;;6.00;;
48813;SDS011;34634;44.108;3.074;2022-11-21T11:52:47;11.00;;;4.18;;
48813;SDS011;34634;44.108;3.074;2022-11-21T11:55:18;11.25;;;4.95;;
48813;SDS011;34634;44.108;3.074;2022-11-21T11:57:45;8.43;;;3.50;;
48813;SDS011;34634;44.108;3.074;2022-11-21T12:05:23;13.15;;;5.43;;
48813;SDS011;34634;44.108;3.074;2022-11-21T12:07:55;10.20;;;5.07;;
48813;SDS011;34634;44.108;3.074;2022-11-21T12:13:01;14.35;;;5.78;;
48813;SDS011;34634;44.108;3.074;2022-11-21T12:15:30;12.27;;;6.05;;
48813;SDS011;34634;44.108;3.074;2022-11-21T12:18:22;9.82;;;3.97;;
48813;SDS011;34634;44.108;3.074;2022-11-21T12:23:18;12.40;;;3.65;;
48813;SDS011;34634;44.108;3.074;2022-11-21T12:28:40;14.43;;;6.07;;
48813;SDS011;34634;44.108;3.074;2022-11-21T12:33:38;16.05;;;8.07;;
48813;SDS011;34634;44.108;3.074;2022-11-21T12:43:59;8.60;;;3.85;;
48813;SDS011;34634;44.108;3.074;2022-11-21T12:46:30;5.90;;;3.55;;
48813;SDS011;34634;44.108;3.074;2022-11-21T12:51:52;8.10;;;3.15;;
48813;SDS011;34634;44.108;3.074;2022-11-21T12:54:54;8.23;;;3.22;;
48813;SDS011;34634;44.108;3.074;2022-11-21T12:57:28;25.63;;;12.73;;
48813;SDS011;34634;44.108;3.074;2022-11-21T13:05:03;9.80;;;4.78;;
48813;SDS011;34634;44.108;3.074;2022-11-21T13:07:31;8.55;;;3.33;;
48813;SDS011;34634;44.108;3.074;2022-11-21T13:09:58;9.55;;;2.92;;
48813;SDS011;34634;44.108;3.074;2022-11-21T13:27:45;7.20;;;2.85;;
48813;SDS011;34634;44.108;3.074;2022-11-21T13:32:39;7.57;;;2.05;;
48813;SDS011;34634;44.108;3.074;2022-11-21T13:45:50;7.60;;;2.47;;
48813;SDS011;34634;44.108;3.074;2022-11-21T14:01:49;6.43;;;2.70;;
48813;SDS011;34634;44.108;3.074;2022-11-21T14:06:44;5.65;;;2.20;;
48813;SDS011;34634;44.108;3.074;2022-11-21T14:14:22;4.05;;;2.15;;
48813;SDS011;34634;44.108;3.074;2022-11-21T14:16:48;5.97;;;2.03;;
48813;SDS011;34634;44.108;3.074;2022-11-21T14:19:18;6.55;;;2.20;;
48813;SDS011;34634;44.108;3.074;2022-11-21T14:21:45;7.55;;;2.60;;
48813;SDS011;34634;44.108;3.074;2022-11-21T14:24:19;8.77;;;3.22;;
48813;SDS011;34634;44.108;3.074;2022-11-21T14:26:46;7.75;;;2.80;;
48813;SDS011;34634;44.108;3.074;2022-11-21T14:29:27;6.75;;;3.58;;
48813;SDS011;34634;44.108;3.074;2022-11-21T14:31:54;9.10;;;4.60;;
48813;SDS011;34634;44.108;3.074;2022-11-21T14:34:24;11.95;;;6.10;;
48813;SDS011;34634;44.108;3.074;2022-11-21T14:36:50;8.70;;;3.60;;
48813;SDS011;34634;44.108;3.074;2022-11-21T14:39:17;13.07;;;6.05;;
48813;SDS011;34634;44.108;3.074;2022-11-21T14:41:48;9.38;;;5.50;;
48813;SDS011;34634;44.108;3.074;2022-11-21T14:44:17;6.20;;;3.88;;
48813;SDS011;34634;44.108;3.074;2022-11-21T14:46:44;6.63;;;3.25;;
48813;SDS011;34634;44.108;3.074;2022-11-21T14:51:40;16.60;;;9.30;;
48813;SDS011;34634;44.108;3.074;2022-11-21T14:54:12;10.00;;;5.72;;
48813;SDS011;34634;44.108;3.074;2022-11-21T14:56:39;10.00;;;5.00;;
48813;SDS011;34634;44.108;3.074;2022-11-21T14:59:08;19.17;;;11.98;;
48813;SDS011;34634;44.108;3.074;2022-11-21T15:01:38;17.08;;;10.73;;
48813;SDS011;34634;44.108;3.074;2022-11-21T15:04:05;17.25;;;9.60;;
48813;SDS011;34634;44.108;3.074;2022-11-21T15:06:39;23.27;;;16.60;;
48813;SDS011;34634;44.108;3.074;2022-11-21T15:09:10;18.83;;;10.23;;
48813;SDS011;34634;44.108;3.074;2022-11-21T15:14:04;16.38;;;9.55;;
48813;SDS011;34634;44.108;3.074;2022-11-21T15:16:32;14.45;;;9.45;;
48813;SDS011;34634;44.108;3.074;2022-11-21T15:18:59;38.22;;;26.55;;
48813;SDS011;34634;44.108;3.074;2022-11-21T15:21:25;16.58;;;11.13;;
48813;SDS011;34634;44.108;3.074;2022-11-21T15:23:54;20.58;;;13.18;;
48813;SDS011;34634;44.108;3.074;2022-11-21T15:26:27;17.75;;;13.52;;
48813;SDS011;34634;44.108;3.074;2022-11-21T15:28:55;16.50;;;11.50;;
48813;SDS011;34634;44.108;3.074;2022-11-21T15:31:22;44.47;;;21.08;;
48813;SDS011;34634;44.108;3.074;2022-11-21T15:36:41;26.67;;;15.27;;
48813;SDS011;34634;44.108;3.074;2022-11-21T15:39:20;35.58;;;21.40;;
48813;SDS011;34634;44.108;3.074;2022-11-21T15:41:47;22.40;;;12.80;;
48813;SDS011;34634;44.108;3.074;2022-11-21T15:44:17;22.05;;;13.77;;
48813;SDS011;34634;44.108;3.074;2022-11-21T15:46:45;19.27;;;13.05;;
48813;SDS011;34634;44.108;3.074;2022-11-21T15:49:15;34.47;;;24.80;;
48813;SDS011;34634;44.108;3.074;2022-11-21T15:51:46;28.67;;;18.60;;
48813;SDS011;34634;44.108;3.074;2022-11-21T15:54:16;38.75;;;22.15;;
48813;SDS011;34634;44.108;3.074;2022-11-21T15:56:43;37.47;;;22.83;;
48813;SDS011;34634;44.108;3.074;2022-11-21T15:59:11;36.10;;;23.60;;
48813;SDS011;34634;44.108;3.074;2022-11-21T16:01:37;26.95;;;14.88;;
48813;SDS011;34634;44.108;3.074;2022-11-21T16:04:05;21.65;;;14.15;;
48813;SDS011;34634;44.108;3.074;2022-11-21T16:06:31;21.50;;;12.98;;
48813;SDS011;34634;44.108;3.074;2022-11-21T16:08:59;22.98;;;15.52;;
48813;SDS011;34634;44.108;3.074;2022-11-21T16:13:52;27.08;;;16.90;;
48813;SDS011;34634;44.108;3.074;2022-11-21T16:16:19;21.33;;;12.50;;
48813;SDS011;34634;44.108;3.074;2022-11-21T16:18:46;24.92;;;13.65;;
48813;SDS011;34634;44.108;3.074;2022-11-21T16:21:12;24.73;;;13.48;;
48813;SDS011;34634;44.108;3.074;2022-11-21T16:23:38;23.40;;;13.30;;
48813;SDS011;34634;44.108;3.074;2022-11-21T16:26:05;50.78;;;28.15;;
48813;SDS011;34634;44.108;3.074;2022-11-21T16:28:32;87.60;;;47.65;;
48813;SDS011;34634;44.108;3.074;2022-11-21T16:30:59;68.93;;;39.08;;
48813;SDS011;34634;44.108;3.074;2022-11-21T16:33:26;45.08;;;26.17;;
48813;SDS011;34634;44.108;3.074;2022-11-21T16:35:52;33.33;;;21.15;;
48813;SDS011;34634;44.108;3.074;2022-11-21T16:38:27;34.20;;;22.08;;
48813;SDS011;34634;44.108;3.074;2022-11-21T16:40:54;57.03;;;38.53;;
48813;SDS011;34634;44.108;3.074;2022-11-21T16:43:21;66.00;;;41.30;;
48813;SDS011;34634;44.108;3.074;2022-11-21T16:45:48;52.30;;;31.30;;
48813;SDS011;34634;44.108;3.074;2022-11-21T16:48:14;33.17;;;20.50;;
48813;SDS011;34634;44.108;3.074;2022-11-21T16:50:41;35.40;;;21.35;;
48813;SDS011;34634;44.108;3.074;2022-11-21T16:53:07;22.38;;;13.18;;
48813;SDS011;34634;44.108;3.074;2022-11-21T16:55:33;10.95;;;6.57;;